createdAt,value
2023-02-20T00:00:18.723Z,6.40
2023-02-20T00:02:45.497Z,8.27
2023-02-20T00:05:13.865Z,7.93
2023-02-20T00:07:40.990Z,7.78
2023-02-20T00:10:08.553Z,8.48
2023-02-20T00:12:35.108Z,6.47
2023-02-20T00:15:03.244Z,7.68
2023-02-20T00:17:29.751Z,7.63
2023-02-20T00:19:56.639Z,8.82
2023-02-20T00:22:24.105Z,9.68
2023-02-20T00:24:51.364Z,7.28
2023-02-20T00:27:18.673Z,9.32
2023-02-20T00:29:46.392Z,6.63
2023-02-20T00:32:13.474Z,6.88
2023-02-20T00:34:40.070Z,7.38
2023-02-20T00:37:17.282Z,7.75
2023-02-20T00:39:45.060Z,7.20
2023-02-20T00:42:11.540Z,7.57
2023-02-20T00:44:38.043Z,6.80
2023-02-20T00:47:05.022Z,7.22
2023-02-20T00:49:31.469Z,9.25
2023-02-20T00:51:57.960Z,8.00
2023-02-20T00:54:24.416Z,7.95
2023-02-20T00:56:51.303Z,8.23
2023-02-20T00:59:17.804Z,7.00
2023-02-20T01:01:44.477Z,7.50
2023-02-20T01:04:14.620Z,8.68
2023-02-20T01:06:41.207Z,6.20
2023-02-20T01:09:07.700Z,10.20
2023-02-20T01:11:34.505Z,14.52
2023-02-20T01:14:00.935Z,9.75
2023-02-20T01:16:27.412Z,7.50
2023-02-20T01:18:54.100Z,6.40
2023-02-20T01:21:20.601Z,10.10
2023-02-20T01:23:47.039Z,6.60
2023-02-20T01:26:13.863Z,6.13
2023-02-20T01:28:43.794Z,5.78
2023-02-20T01:31:10.306Z,5.78
2023-02-20T01:33:36.786Z,11.77
2023-02-20T01:36:03.414Z,7.20
2023-02-20T01:38:29.818Z,5.53
2023-02-20T01:40:56.601Z,5.63
2023-02-20T01:43:23.117Z,6.18
2023-02-20T01:45:49.545Z,6.40
2023-02-20T01:48:20.965Z,7.25
2023-02-20T01:50:48.992Z,6.07
2023-02-20T01:53:19.954Z,6.03
2023-02-20T01:55:55.351Z,7.88
2023-02-20T01:58:37.065Z,5.65
2023-02-20T02:01:04.975Z,7.45
2023-02-20T02:03:35.084Z,5.65
2023-02-20T02:06:05.830Z,6.22
2023-02-20T02:08:34.647Z,6.93
2023-02-20T02:11:08.654Z,6.93
2023-02-20T02:13:38.269Z,7.10
2023-02-20T02:16:30.748Z,7.40
2023-02-20T02:19:06.947Z,5.72
2023-02-20T02:22:12.822Z,6.75
2023-02-20T02:25:10.982Z,5.97
2023-02-20T02:28:05.372Z,6.50
2023-02-20T02:30:43.922Z,4.45
2023-02-20T02:33:55.448Z,7.88
2023-02-20T02:36:40.609Z,9.43
2023-02-20T02:39:28.609Z,6.13
2023-02-20T02:42:07.893Z,6.10
2023-02-20T02:44:47.612Z,6.47
2023-02-20T02:47:27.996Z,6.20
2023-02-20T02:50:05.141Z,7.45
2023-02-20T02:52:48.662Z,6.57
2023-02-20T02:55:19.353Z,6.38
2023-02-20T02:57:45.917Z,6.72
2023-02-20T03:00:26.355Z,8.98
2023-02-20T03:03:09.129Z,6.97
2023-02-20T03:05:40.547Z,6.70
2023-02-20T03:08:22.329Z,8.38
2023-02-20T03:10:53.523Z,8.10
2023-02-20T03:13:20.187Z,7.63
2023-02-20T03:15:52.880Z,7.03
2023-02-20T03:18:38.811Z,7.70
2023-02-20T03:21:14.728Z,6.72
2023-02-20T03:23:46.228Z,8.15
2023-02-20T03:26:19.415Z,9.52
2023-02-20T03:28:52.104Z,9.32
2023-02-20T03:31:26.749Z,12.50
2023-02-20T03:34:24.525Z,7.82
2023-02-20T03:37:16.636Z,8.30
2023-02-20T03:40:06.840Z,8.40
2023-02-20T03:42:56.075Z,10.13
2023-02-20T03:45:24.929Z,10.50
2023-02-20T03:47:55.131Z,9.25
2023-02-20T03:50:21.792Z,15.70
2023-02-20T03:52:50.787Z,12.25
2023-02-20T03:55:17.281Z,11.65
2023-02-20T03:57:50.227Z,10.43
2023-02-20T04:00:20.755Z,12.32
2023-02-20T04:02:51.104Z,11.27
2023-02-20T04:05:25.109Z,11.75
2023-02-20T04:08:14.602Z,11.57
2023-02-20T04:10:48.933Z,11.52
2023-02-20T04:13:17.706Z,11.50
2023-02-20T04:15:45.308Z,12.15
2023-02-20T04:18:14.545Z,10.60
2023-02-20T04:20:41.490Z,15.25
2023-02-20T04:23:15.558Z,11.82
2023-02-20T04:25:54.330Z,12.73
2023-02-20T04:28:21.524Z,12.90
2023-02-20T04:30:49.187Z,12.63
2023-02-20T04:33:18.170Z,14.48
2023-02-20T04:35:44.739Z,15.50
2023-02-20T04:38:12.337Z,12.30
2023-02-20T04:40:38.903Z,13.07
2023-02-20T04:43:05.541Z,14.57
2023-02-20T04:45:32.258Z,12.40
2023-02-20T04:47:58.713Z,16.77
2023-02-20T04:50:32.162Z,16.23
2023-02-20T04:52:59.496Z,18.42
2023-02-20T04:55:26.449Z,15.10
2023-02-20T04:57:56.104Z,17.05
2023-02-20T05:00:24.041Z,16.17
2023-02-20T05:02:50.499Z,18.00
2023-02-20T05:05:24.675Z,15.52
2023-02-20T05:08:02.983Z,16.85
2023-02-20T05:10:30.638Z,16.60
2023-02-20T05:12:57.870Z,16.60
2023-02-20T05:15:25.769Z,14.32
2023-02-20T05:17:52.292Z,15.90
2023-02-20T05:20:19.164Z,14.35
2023-02-20T05:22:47.165Z,17.35
2023-02-20T05:25:14.862Z,18.05
2023-02-20T05:27:42.549Z,19.27
2023-02-20T05:30:10.324Z,18.70
2023-02-20T05:32:37.786Z,14.27
2023-02-20T05:35:06.668Z,16.33
2023-02-20T05:37:33.839Z,16.65
2023-02-20T05:40:01.230Z,15.35
2023-02-20T05:42:27.684Z,13.77
2023-02-20T05:44:54.099Z,15.93
2023-02-20T05:47:20.591Z,16.48
2023-02-20T05:49:47.400Z,14.07
2023-02-20T05:52:13.860Z,15.00
2023-02-20T05:54:41.998Z,13.75
2023-02-20T05:57:11.168Z,11.48
2023-02-20T05:59:37.562Z,15.57
2023-02-20T06:02:16.401Z,14.90
2023-02-20T06:04:43.361Z,12.98
2023-02-20T06:07:12.836Z,11.70
2023-02-20T06:09:45.555Z,12.73
2023-02-20T06:12:12.639Z,17.67
2023-02-20T06:14:39.227Z,14.45
2023-02-20T06:17:12.076Z,13.20
2023-02-20T06:19:39.360Z,14.63
2023-02-20T06:22:06.513Z,15.75
2023-02-20T06:24:33.034Z,17.45
2023-02-20T06:26:59.628Z,11.10
2023-02-20T06:29:26.178Z,16.58
2023-02-20T06:31:52.893Z,11.35
2023-02-20T06:34:19.538Z,12.10
2023-02-20T06:36:46.031Z,10.60
2023-02-20T06:39:14.282Z,10.73
2023-02-20T06:41:41.174Z,15.70
2023-02-20T06:44:07.902Z,9.32
2023-02-20T06:46:34.490Z,11.90
2023-02-20T06:49:01.152Z,10.20
2023-02-20T06:51:35.392Z,12.38
2023-02-20T06:54:03.030Z,10.32
2023-02-20T06:56:32.076Z,11.20
2023-02-20T06:58:58.936Z,11.15
2023-02-20T07:01:28.694Z,11.82
2023-02-20T07:03:57.694Z,12.48
2023-02-20T07:06:25.198Z,10.77
2023-02-20T07:08:52.662Z,7.70
2023-02-20T07:11:23.676Z,8.13
2023-02-20T07:13:51.025Z,10.23
2023-02-20T07:16:17.741Z,9.15
2023-02-20T07:18:44.274Z,11.38
2023-02-20T07:21:10.753Z,8.23
2023-02-20T07:23:37.196Z,11.60
2023-02-20T07:26:03.767Z,8.88
2023-02-20T07:28:30.509Z,12.70
2023-02-20T07:30:57.066Z,10.32
2023-02-20T07:33:23.528Z,9.48
2023-02-20T07:35:49.926Z,12.70
2023-02-20T07:38:16.335Z,13.02
2023-02-20T07:40:42.893Z,9.38
2023-02-20T07:43:09.463Z,9.38
2023-02-20T07:45:35.960Z,9.75
2023-02-20T07:48:02.602Z,9.60
2023-02-20T07:50:29.251Z,10.50
2023-02-20T07:52:56.163Z,9.40
2023-02-20T07:55:23.756Z,13.00
2023-02-20T07:57:54.459Z,11.80
2023-02-20T08:00:21.711Z,12.82
2023-02-20T08:02:48.226Z,12.50
2023-02-20T08:05:14.771Z,9.38
2023-02-20T08:07:49.398Z,14.30
2023-02-20T08:10:18.097Z,7.95
2023-02-20T08:12:44.800Z,12.50
2023-02-20T08:15:13.003Z,9.68
2023-02-20T08:17:46.849Z,14.20
2023-02-20T08:20:14.856Z,11.60
2023-02-20T08:22:42.269Z,11.20
2023-02-20T08:25:09.367Z,14.40
2023-02-20T08:27:38.458Z,14.80
2023-02-20T08:30:08.552Z,15.70
2023-02-20T08:32:39.714Z,9.20
2023-02-20T08:35:06.890Z,11.18
2023-02-20T08:37:33.332Z,15.80
2023-02-20T08:40:00.744Z,10.07
2023-02-20T08:42:27.262Z,10.02
2023-02-20T08:44:53.728Z,11.57
2023-02-20T08:47:21.056Z,12.25
2023-02-20T08:49:48.763Z,9.90
2023-02-20T08:52:16.266Z,16.02
2023-02-20T08:54:49.866Z,7.90
2023-02-20T08:59:45.296Z,11.77
2023-02-20T09:02:24.705Z,8.52
2023-02-20T09:04:51.715Z,8.85
2023-02-20T09:07:18.229Z,12.73
2023-02-20T09:09:44.691Z,11.90
2023-02-20T09:12:11.254Z,11.40
2023-02-20T09:14:39.236Z,9.68
2023-02-20T09:17:06.092Z,10.85
2023-02-20T09:19:32.987Z,11.55
2023-02-20T09:21:59.700Z,7.85
2023-02-20T09:24:32.145Z,10.30
2023-02-20T09:26:58.681Z,8.80
2023-02-20T09:29:25.116Z,8.68
2023-02-20T09:31:51.785Z,10.30
2023-02-20T09:34:18.389Z,8.38
2023-02-20T09:36:44.876Z,8.85
2023-02-20T09:39:11.305Z,7.65
2023-02-20T09:42:15.377Z,7.63
2023-02-20T09:44:49.690Z,7.68
2023-02-20T09:47:34.524Z,7.70
2023-02-20T09:50:06.141Z,7.80
2023-02-20T09:52:39.975Z,7.30
2023-02-20T09:55:11.913Z,6.68
2023-02-20T09:57:40.255Z,7.20
2023-02-20T10:00:12.848Z,4.75
2023-02-20T10:02:45.541Z,6.45
2023-02-20T10:05:22.458Z,5.43
2023-02-20T10:07:50.874Z,5.65
2023-02-20T10:10:19.125Z,9.60
2023-02-20T10:12:49.209Z,7.32
2023-02-20T10:15:25.844Z,4.20
2023-02-20T10:18:17.932Z,4.82
2023-02-20T10:20:53.131Z,5.00
2023-02-20T10:24:05.076Z,5.05
2023-02-20T10:26:39.816Z,5.63
2023-02-20T10:29:23.989Z,4.80
2023-02-20T10:32:02.499Z,9.20
2023-02-20T10:34:41.299Z,4.47
2023-02-20T10:37:18.520Z,5.28
2023-02-20T10:39:56.001Z,6.60
2023-02-20T10:42:42.657Z,4.38
2023-02-20T10:45:30.586Z,5.78
2023-02-20T10:48:06.756Z,6.47
2023-02-20T10:50:42.950Z,6.22
2023-02-20T10:53:56.670Z,4.25
2023-02-20T10:56:45.123Z,3.42
2023-02-20T10:59:17.591Z,4.50
2023-02-20T11:01:49.356Z,8.02
2023-02-20T11:04:22.056Z,2.85
2023-02-20T11:07:02.517Z,4.27
2023-02-20T11:09:29.288Z,4.63
2023-02-20T11:11:57.201Z,3.78
2023-02-20T11:14:47.318Z,6.63
2023-02-20T11:17:19.335Z,4.15
2023-02-20T11:20:00.787Z,3.50
2023-02-20T11:22:49.172Z,7.53
2023-02-20T11:25:27.394Z,4.88
2023-02-20T11:27:57.840Z,6.30
2023-02-20T11:30:30.855Z,6.10
2023-02-20T11:33:06.549Z,3.28
2023-02-20T11:35:39.958Z,5.78
2023-02-20T11:41:08.782Z,4.32
2023-02-20T11:44:00.110Z,4.68
2023-02-20T11:46:28.169Z,2.03
2023-02-20T11:48:54.576Z,3.38
2023-02-20T11:51:42.854Z,4.13
2023-02-20T11:54:21.836Z,3.08
2023-02-20T11:57:00.946Z,3.90
2023-02-20T11:59:34.794Z,4.57
2023-02-20T12:02:17.188Z,3.20
2023-02-20T12:04:45.579Z,4.13
2023-02-20T12:07:41.995Z,5.03
2023-02-20T12:10:40.103Z,2.80
2023-02-20T12:13:12.689Z,3.78
2023-02-20T12:15:39.236Z,3.30
2023-02-20T12:18:31.714Z,6.40
2023-02-20T12:21:11.154Z,4.72
2023-02-20T12:24:09.968Z,6.72
2023-02-20T12:26:46.385Z,3.15
2023-02-20T12:29:31.908Z,3.08
2023-02-20T12:32:38.821Z,4.38
2023-02-20T12:35:17.480Z,3.13
2023-02-20T12:38:03.373Z,5.68
2023-02-20T12:40:48.529Z,4.07
2023-02-20T12:43:33.813Z,1.98
2023-02-20T12:46:16.183Z,3.03
2023-02-20T12:49:17.933Z,3.97
2023-02-20T12:51:52.949Z,3.92
2023-02-20T12:54:38.135Z,3.60
2023-02-20T12:57:18.711Z,3.95
2023-02-20T12:59:51.224Z,4.47
2023-02-20T13:02:41.003Z,2.45
2023-02-20T13:05:12.555Z,3.28
2023-02-20T13:07:47.200Z,2.70
2023-02-20T13:10:23.078Z,4.53
2023-02-20T13:12:51.811Z,5.78
2023-02-20T13:15:36.478Z,4.43
2023-02-20T13:18:32.152Z,3.60
2023-02-20T13:21:15.703Z,2.08
2023-02-20T13:23:42.574Z,2.58
2023-02-20T13:26:35.667Z,5.65
2023-02-20T13:29:25.725Z,5.82
2023-02-20T13:32:01.724Z,3.55
2023-02-20T13:34:39.660Z,8.95
2023-02-20T13:37:34.755Z,3.75
2023-02-20T13:40:35.061Z,3.08
2023-02-20T13:43:28.421Z,4.50
2023-02-20T13:46:00.992Z,3.67
2023-02-20T13:48:30.356Z,5.10
2023-02-20T13:51:15.088Z,4.88
2023-02-20T13:53:43.126Z,4.15
2023-02-20T13:56:38.626Z,5.32
2023-02-20T13:59:12.503Z,2.38
2023-02-20T14:02:00.945Z,5.43
2023-02-20T14:04:27.582Z,3.45
2023-02-20T14:06:58.708Z,4.30
2023-02-20T14:09:33.296Z,6.60
2023-02-20T14:12:07.890Z,9.80
2023-02-20T14:14:41.380Z,4.45
2023-02-20T14:17:14.085Z,5.53
2023-02-20T14:19:44.028Z,3.27
2023-02-20T14:22:27.341Z,10.10
2023-02-20T14:25:22.171Z,6.72
2023-02-20T14:27:50.387Z,4.72
2023-02-20T14:30:26.549Z,6.43
2023-02-20T14:32:58.982Z,3.83
2023-02-20T14:35:43.290Z,2.40
2023-02-20T14:38:50.174Z,5.88
2023-02-20T14:41:23.977Z,36.10
2023-02-20T14:43:58.398Z,3.28
2023-02-20T14:46:35.808Z,1.42
2023-02-20T14:49:09.125Z,3.20
2023-02-20T14:51:36.959Z,4.55
2023-02-20T14:54:25.554Z,2.08
2023-02-20T14:56:55.311Z,3.38
2023-02-20T14:59:29.316Z,2.90
2023-02-20T15:01:58.946Z,4.82
2023-02-20T15:04:26.562Z,1.92
2023-02-20T15:06:55.491Z,4.78
2023-02-20T15:09:23.554Z,4.18
2023-02-20T15:11:53.514Z,12.75
2023-02-20T15:14:24.907Z,30.27
2023-02-20T15:17:38.312Z,39.35
2023-02-20T15:20:20.224Z,2.38
2023-02-20T15:22:47.099Z,3.85
2023-02-20T15:25:25.460Z,3.78
2023-02-20T15:28:04.134Z,4.47
2023-02-20T15:30:31.319Z,4.65
2023-02-20T15:32:58.796Z,1.83
2023-02-20T15:35:27.807Z,3.92
2023-02-20T15:38:00.065Z,5.88
2023-02-20T15:40:32.915Z,3.20
2023-02-20T15:43:04.395Z,2.25
2023-02-20T15:45:37.741Z,2.33
2023-02-20T15:48:04.797Z,3.20
2023-02-20T15:50:31.193Z,4.97
2023-02-20T15:52:58.712Z,2.80
2023-02-20T15:55:25.881Z,5.10
2023-02-20T15:57:56.783Z,2.28
2023-02-20T16:00:27.077Z,2.70
2023-02-20T16:02:54.448Z,7.68
2023-02-20T16:05:21.259Z,8.27
2023-02-20T16:07:47.886Z,4.28
2023-02-20T16:10:17.431Z,6.90
2023-02-20T16:12:45.039Z,5.47
2023-02-20T16:15:21.863Z,5.47
2023-02-20T16:17:49.614Z,5.68
2023-02-20T16:20:19.225Z,4.82
2023-02-20T16:22:46.057Z,5.10
2023-02-20T16:25:18.097Z,3.22
2023-02-20T16:27:45.916Z,4.65
2023-02-20T16:30:32.348Z,4.75
2023-02-20T16:33:00.190Z,5.63
2023-02-20T16:35:26.754Z,4.22
2023-02-20T16:37:53.758Z,3.78
2023-02-20T16:40:20.178Z,6.20
2023-02-20T16:42:46.655Z,5.18
2023-02-20T16:45:18.219Z,6.25
2023-02-20T16:47:49.263Z,3.83
2023-02-20T16:50:20.050Z,8.80
2023-02-20T16:52:49.589Z,5.70
2023-02-20T16:55:21.760Z,6.38
2023-02-20T16:57:48.683Z,5.10
2023-02-20T17:00:21.457Z,5.40
2023-02-20T17:02:47.966Z,4.90
2023-02-20T17:05:15.647Z,5.03
2023-02-20T17:07:42.493Z,4.75
2023-02-20T17:10:09.326Z,6.15
2023-02-20T17:12:36.849Z,5.93
2023-02-20T17:15:05.662Z,5.93
2023-02-20T17:17:35.005Z,6.22
2023-02-20T17:20:02.485Z,5.03
2023-02-20T17:22:29.571Z,5.22
2023-02-20T17:24:57.921Z,9.18
2023-02-20T17:27:24.974Z,6.45
2023-02-20T17:29:51.461Z,8.73
2023-02-20T17:32:18.947Z,8.70
2023-02-20T17:34:45.641Z,5.80
2023-02-20T17:37:13.319Z,5.43
2023-02-20T17:39:40.203Z,4.43
2023-02-20T17:42:07.056Z,5.90
2023-02-20T17:44:33.733Z,6.85
2023-02-20T17:47:01.283Z,7.32
2023-02-20T17:49:28.709Z,7.53
2023-02-20T17:52:01.440Z,7.60
2023-02-20T17:54:31.820Z,7.83
2023-02-20T17:56:58.835Z,9.85
2023-02-20T17:59:25.416Z,7.80
2023-02-20T18:01:52.448Z,9.05
2023-02-20T18:04:21.201Z,6.53
2023-02-20T18:06:48.275Z,6.68
2023-02-20T18:09:17.194Z,10.70
2023-02-20T18:11:45.015Z,6.60
2023-02-20T18:14:11.998Z,8.35
2023-02-20T18:16:41.657Z,6.15
2023-02-20T18:19:10.694Z,5.50
2023-02-20T18:21:40.549Z,6.65
2023-02-20T18:24:09.427Z,10.20
2023-02-20T18:26:36.838Z,9.85
2023-02-20T18:29:04.776Z,5.20
2023-02-20T18:31:31.405Z,7.65
2023-02-20T18:33:58.023Z,8.60
2023-02-20T18:36:25.118Z,8.68
2023-02-20T18:38:51.724Z,8.00
2023-02-20T18:41:18.340Z,7.70
2023-02-20T18:43:46.295Z,5.65
2023-02-20T18:46:23.593Z,7.93
2023-02-20T18:48:50.040Z,10.40
2023-02-20T18:51:16.485Z,8.20
2023-02-20T18:53:44.959Z,6.40
2023-02-20T18:56:13.211Z,7.93
2023-02-20T18:58:40.962Z,10.75
2023-02-20T19:01:07.763Z,8.70
2023-02-20T19:03:34.175Z,6.30
2023-02-20T19:06:01.729Z,11.88
2023-02-20T19:08:28.343Z,6.97
2023-02-20T19:10:54.853Z,8.48
2023-02-20T19:13:21.493Z,10.30
2023-02-20T19:15:48.034Z,5.82
2023-02-20T19:18:14.534Z,6.32
2023-02-20T19:20:41.018Z,8.55
2023-02-20T19:23:07.830Z,6.55
2023-02-20T19:25:34.378Z,9.98
2023-02-20T19:28:00.833Z,5.35
2023-02-20T19:30:27.756Z,5.20
2023-02-20T19:32:54.295Z,6.97
2023-02-20T19:35:21.216Z,5.93
2023-02-20T19:37:48.451Z,6.78
2023-02-20T19:40:15.004Z,5.75
2023-02-20T19:42:41.471Z,6.68
2023-02-20T19:45:08.299Z,7.65
2023-02-20T19:47:35.005Z,5.05
2023-02-20T19:50:02.183Z,5.82
2023-02-20T19:52:28.680Z,6.43
2023-02-20T19:54:55.089Z,5.45
2023-02-20T19:57:21.937Z,6.70
2023-02-20T19:59:48.371Z,7.13
2023-02-20T20:02:14.970Z,6.78
2023-02-20T20:04:43.761Z,5.72
2023-02-20T20:07:10.364Z,5.75
2023-02-20T20:09:37.983Z,5.20
2023-02-20T20:12:27.165Z,5.40
2023-02-20T20:14:54.057Z,4.93
2023-02-20T20:17:20.801Z,8.15
2023-02-20T20:19:58.542Z,6.00
2023-02-20T20:22:25.523Z,6.63
2023-02-20T20:24:51.938Z,5.63
2023-02-20T20:27:20.757Z,4.95
2023-02-20T20:29:48.758Z,5.20
2023-02-20T20:32:17.080Z,6.13
2023-02-20T20:34:49.626Z,6.10
2023-02-20T20:37:16.229Z,8.27
2023-02-20T20:39:43.106Z,7.13
2023-02-20T20:42:09.523Z,8.50
2023-02-20T20:44:35.944Z,6.90
2023-02-20T20:47:03.832Z,7.07
2023-02-20T20:49:30.239Z,8.43
2023-02-20T20:51:56.696Z,6.43
2023-02-20T20:54:23.234Z,6.78
2023-02-20T20:56:51.107Z,6.40
2023-02-20T20:59:17.975Z,6.50
2023-02-20T21:01:45.162Z,6.00
2023-02-20T21:04:12.458Z,7.15
2023-02-20T21:06:38.909Z,5.22
2023-02-20T21:09:05.918Z,7.38
2023-02-20T21:11:35.279Z,5.63
2023-02-20T21:14:01.984Z,5.32
2023-02-20T21:16:28.464Z,6.45
2023-02-20T21:18:54.916Z,5.18
2023-02-20T21:21:29.284Z,5.90
2023-02-20T21:23:55.724Z,7.47
2023-02-20T21:26:22.418Z,4.57
2023-02-20T21:28:49.719Z,8.70
2023-02-20T21:31:17.073Z,7.65
2023-02-20T21:33:44.289Z,5.95
2023-02-20T21:36:10.822Z,6.93
2023-02-20T21:38:37.271Z,6.57
2023-02-20T21:41:04.388Z,6.75
2023-02-20T21:43:49.684Z,4.85
2023-02-20T21:46:18.916Z,7.10
2023-02-20T21:48:45.626Z,5.85
2023-02-20T21:51:12.373Z,6.07
2023-02-20T21:53:38.963Z,6.18
2023-02-20T21:56:05.679Z,4.57
2023-02-20T21:58:50.811Z,7.57
2023-02-20T22:01:17.198Z,6.57
2023-02-20T22:03:43.620Z,5.35
2023-02-20T22:06:10.310Z,5.03
2023-02-20T22:08:55.505Z,5.85
2023-02-20T22:11:40.437Z,6.45
2023-02-20T22:14:25.217Z,9.88
2023-02-20T22:17:10.639Z,5.28
2023-02-20T22:19:55.570Z,5.13
2023-02-20T22:22:40.701Z,8.23
2023-02-20T22:25:28.398Z,8.05
2023-02-20T22:28:13.375Z,10.10
2023-02-20T22:30:58.253Z,7.93
2023-02-20T22:33:43.402Z,8.60
2023-02-20T22:36:28.826Z,9.68
2023-02-20T22:39:13.623Z,11.07
2023-02-20T22:41:58.572Z,10.02
2023-02-20T22:44:43.965Z,9.77
2023-02-20T22:47:28.899Z,12.82
2023-02-20T22:50:14.386Z,12.85
2023-02-20T22:52:59.551Z,12.35
2023-02-20T22:55:44.704Z,11.63
2023-02-20T22:58:29.543Z,16.02
2023-02-20T23:01:14.756Z,11.75
2023-02-20T23:04:00.418Z,13.43
2023-02-20T23:06:45.806Z,15.85
2023-02-20T23:09:31.850Z,12.90
2023-02-20T23:12:16.718Z,15.60
2023-02-20T23:15:01.627Z,14.90
2023-02-20T23:17:46.497Z,18.88
2023-02-20T23:20:34.225Z,15.52
2023-02-20T23:23:22.120Z,13.90
2023-02-20T23:26:07.678Z,15.40
2023-02-20T23:28:52.995Z,17.33
2023-02-20T23:31:48.577Z,19.23
2023-02-20T23:34:33.802Z,18.27
2023-02-20T23:37:18.667Z,17.27
2023-02-20T23:40:03.632Z,19.15
2023-02-20T23:42:48.510Z,15.43
2023-02-20T23:45:33.875Z,16.92
2023-02-20T23:48:19.022Z,17.50
2023-02-20T23:51:04.409Z,22.02
2023-02-20T23:53:53.940Z,20.20
2023-02-20T23:56:27.958Z,20.75
2023-02-20T23:59:12.825Z,22.77
